sensor_id;sensor_type;location;lat;lon;timestamp;P1;durP1;ratioP1;P2;durP2;ratioP2
39020;SDS011;25188;51.958;5.842;2023-07-08T00:00:39;2.53;;;1.25;;
39020;SDS011;25188;51.958;5.842;2023-07-08T00:03:04;3.40;;;1.30;;
39020;SDS011;25188;51.958;5.842;2023-07-08T00:05:30;4.47;;;1.40;;
39020;SDS011;25188;51.958;5.842;2023-07-08T00:07:56;3.55;;;1.42;;
39020;SDS011;25188;51.958;5.842;2023-07-08T00:10:23;4.35;;;1.60;;
39020;SDS011;25188;51.958;5.842;2023-07-08T00:12:52;3.47;;;1.05;;
39020;SDS011;25188;51.958;5.842;2023-07-08T00:15:21;3.05;;;1.30;;
39020;SDS011;25188;51.958;5.842;2023-07-08T00:17:52;2.45;;;1.15;;
39020;SDS011;25188;51.958;5.842;2023-07-08T00:20:19;3.50;;;1.55;;
39020;SDS011;25188;51.958;5.842;2023-07-08T00:22:48;3.13;;;1.05;;
39020;SDS011;25188;51.958;5.842;2023-07-08T00:25:15;5.20;;;1.27;;
39020;SDS011;25188;51.958;5.842;2023-07-08T00:27:42;4.70;;;1.05;;
39020;SDS011;25188;51.958;5.842;2023-07-08T00:30:14;3.28;;;1.40;;
39020;SDS011;25188;51.958;5.842;2023-07-08T00:32:42;3.58;;;1.30;;
39020;SDS011;25188;51.958;5.842;2023-07-08T00:35:08;3.47;;;1.60;;
39020;SDS011;25188;51.958;5.842;2023-07-08T00:37:33;3.30;;;1.48;;
39020;SDS011;25188;51.958;5.842;2023-07-08T00:39:59;3.65;;;1.40;;
39020;SDS011;25188;51.958;5.842;2023-07-08T00:42:25;4.00;;;1.23;;
39020;SDS011;25188;51.958;5.842;2023-07-08T00:44:51;3.25;;;1.33;;
39020;SDS011;25188;51.958;5.842;2023-07-08T00:47:17;4.30;;;1.30;;
39020;SDS011;25188;51.958;5.842;2023-07-08T00:49:52;2.75;;;1.20;;
39020;SDS011;25188;51.958;5.842;2023-07-08T00:52:23;3.15;;;1.35;;
39020;SDS011;25188;51.958;5.842;2023-07-08T00:54:54;2.45;;;0.90;;
39020;SDS011;25188;51.958;5.842;2023-07-08T00:57:26;3.38;;;1.30;;
39020;SDS011;25188;51.958;5.842;2023-07-08T00:59:56;2.47;;;1.20;;
39020;SDS011;25188;51.958;5.842;2023-07-08T01:02:28;3.38;;;1.00;;
39020;SDS011;25188;51.958;5.842;2023-07-08T01:05:01;4.70;;;1.20;;
39020;SDS011;25188;51.958;5.842;2023-07-08T01:07:30;3.95;;;1.08;;
39020;SDS011;25188;51.958;5.842;2023-07-08T01:10:00;2.65;;;1.08;;
39020;SDS011;25188;51.958;5.842;2023-07-08T01:12:30;3.33;;;1.27;;
39020;SDS011;25188;51.958;5.842;2023-07-08T01:15:01;3.00;;;1.20;;
39020;SDS011;25188;51.958;5.842;2023-07-08T01:17:29;4.25;;;1.20;;
39020;SDS011;25188;51.958;5.842;2023-07-08T01:19:58;3.38;;;1.23;;
39020;SDS011;25188;51.958;5.842;2023-07-08T01:22:24;2.92;;;1.00;;
39020;SDS011;25188;51.958;5.842;2023-07-08T01:24:57;3.53;;;1.23;;
39020;SDS011;25188;51.958;5.842;2023-07-08T01:27:28;3.20;;;1.25;;
39020;SDS011;25188;51.958;5.842;2023-07-08T01:29:56;4.93;;;1.48;;
39020;SDS011;25188;51.958;5.842;2023-07-08T01:32:22;2.97;;;1.35;;
39020;SDS011;25188;51.958;5.842;2023-07-08T01:34:48;3.92;;;1.23;;
39020;SDS011;25188;51.958;5.842;2023-07-08T01:37:26;3.70;;;1.42;;
39020;SDS011;25188;51.958;5.842;2023-07-08T01:39:54;3.35;;;1.15;;
39020;SDS011;25188;51.958;5.842;2023-07-08T01:42:19;3.38;;;1.38;;
39020;SDS011;25188;51.958;5.842;2023-07-08T01:44:46;4.10;;;1.67;;
39020;SDS011;25188;51.958;5.842;2023-07-08T01:47:16;3.67;;;1.50;;
39020;SDS011;25188;51.958;5.842;2023-07-08T01:49:45;3.28;;;1.50;;
39020;SDS011;25188;51.958;5.842;2023-07-08T01:52:13;3.38;;;1.30;;
39020;SDS011;25188;51.958;5.842;2023-07-08T01:54:41;4.57;;;1.35;;
39020;SDS011;25188;51.958;5.842;2023-07-08T01:57:07;2.83;;;1.13;;
39020;SDS011;25188;51.958;5.842;2023-07-08T01:59:32;2.35;;;0.88;;
39020;SDS011;25188;51.958;5.842;2023-07-08T02:01:58;3.25;;;1.40;;
39020;SDS011;25188;51.958;5.842;2023-07-08T02:04:24;2.47;;;1.05;;
39020;SDS011;25188;51.958;5.842;2023-07-08T02:06:55;2.28;;;1.10;;
39020;SDS011;25188;51.958;5.842;2023-07-08T02:09:22;2.67;;;1.20;;
39020;SDS011;25188;51.958;5.842;2023-07-08T02:11:48;5.32;;;1.23;;
39020;SDS011;25188;51.958;5.842;2023-07-08T02:14:14;3.33;;;1.40;;
39020;SDS011;25188;51.958;5.842;2023-07-08T02:16:39;3.50;;;1.55;;
39020;SDS011;25188;51.958;5.842;2023-07-08T02:19:05;3.42;;;1.23;;
39020;SDS011;25188;51.958;5.842;2023-07-08T02:21:30;6.47;;;1.60;;
39020;SDS011;25188;51.958;5.842;2023-07-08T02:23:56;4.57;;;1.30;;
39020;SDS011;25188;51.958;5.842;2023-07-08T02:26:23;4.40;;;1.45;;
39020;SDS011;25188;51.958;5.842;2023-07-08T02:28:49;3.45;;;1.30;;
39020;SDS011;25188;51.958;5.842;2023-07-08T02:31:14;2.67;;;1.17;;
39020;SDS011;25188;51.958;5.842;2023-07-08T02:33:40;4.43;;;1.17;;
39020;SDS011;25188;51.958;5.842;2023-07-08T02:36:06;4.28;;;1.42;;
39020;SDS011;25188;51.958;5.842;2023-07-08T02:38:31;2.53;;;1.25;;
39020;SDS011;25188;51.958;5.842;2023-07-08T02:40:57;3.03;;;1.30;;
39020;SDS011;25188;51.958;5.842;2023-07-08T02:43:23;4.75;;;1.60;;
39020;SDS011;25188;51.958;5.842;2023-07-08T02:45:49;3.60;;;1.27;;
39020;SDS011;25188;51.958;5.842;2023-07-08T02:48:16;2.90;;;1.27;;
39020;SDS011;25188;51.958;5.842;2023-07-08T02:50:43;6.18;;;1.35;;
39020;SDS011;25188;51.958;5.842;2023-07-08T02:53:08;4.80;;;1.33;;
39020;SDS011;25188;51.958;5.842;2023-07-08T02:55:34;3.42;;;1.25;;
39020;SDS011;25188;51.958;5.842;2023-07-08T02:58:00;3.45;;;1.25;;
39020;SDS011;25188;51.958;5.842;2023-07-08T03:00:25;2.50;;;1.23;;
39020;SDS011;25188;51.958;5.842;2023-07-08T03:02:51;4.88;;;1.35;;
39020;SDS011;25188;51.958;5.842;2023-07-08T03:05:17;2.97;;;1.38;;
39020;SDS011;25188;51.958;5.842;2023-07-08T03:07:42;2.40;;;1.00;;
39020;SDS011;25188;51.958;5.842;2023-07-08T03:10:08;5.43;;;1.85;;
39020;SDS011;25188;51.958;5.842;2023-07-08T03:12:34;4.53;;;1.65;;
39020;SDS011;25188;51.958;5.842;2023-07-08T03:15:00;4.50;;;1.60;;
39020;SDS011;25188;51.958;5.842;2023-07-08T03:17:25;3.28;;;1.25;;
39020;SDS011;25188;51.958;5.842;2023-07-08T03:19:51;3.42;;;1.33;;
39020;SDS011;25188;51.958;5.842;2023-07-08T03:22:17;4.53;;;1.52;;
39020;SDS011;25188;51.958;5.842;2023-07-08T03:24:42;3.22;;;1.10;;
39020;SDS011;25188;51.958;5.842;2023-07-08T03:27:12;3.90;;;1.20;;
39020;SDS011;25188;51.958;5.842;2023-07-08T03:29:41;3.72;;;1.42;;
39020;SDS011;25188;51.958;5.842;2023-07-08T03:32:10;3.17;;;1.42;;
39020;SDS011;25188;51.958;5.842;2023-07-08T03:34:37;2.28;;;1.02;;
39020;SDS011;25188;51.958;5.842;2023-07-08T03:37:03;3.20;;;1.30;;
39020;SDS011;25188;51.958;5.842;2023-07-08T03:39:29;4.20;;;1.42;;
39020;SDS011;25188;51.958;5.842;2023-07-08T03:41:56;3.40;;;1.45;;
39020;SDS011;25188;51.958;5.842;2023-07-08T03:44:22;5.47;;;1.50;;
39020;SDS011;25188;51.958;5.842;2023-07-08T03:46:48;11.30;;;1.48;;
39020;SDS011;25188;51.958;5.842;2023-07-08T03:49:14;3.20;;;1.30;;
39020;SDS011;25188;51.958;5.842;2023-07-08T03:51:41;4.72;;;1.88;;
39020;SDS011;25188;51.958;5.842;2023-07-08T03:54:11;3.00;;;1.27;;
39020;SDS011;25188;51.958;5.842;2023-07-08T03:56:39;3.38;;;1.52;;
39020;SDS011;25188;51.958;5.842;2023-07-08T03:59:04;5.03;;;1.60;;
39020;SDS011;25188;51.958;5.842;2023-07-08T04:01:30;4.20;;;1.40;;
39020;SDS011;25188;51.958;5.842;2023-07-08T04:03:56;3.42;;;1.42;;
39020;SDS011;25188;51.958;5.842;2023-07-08T04:06:23;2.95;;;1.50;;
39020;SDS011;25188;51.958;5.842;2023-07-08T04:08:49;3.33;;;1.20;;
39020;SDS011;25188;51.958;5.842;2023-07-08T04:11:17;8.43;;;1.30;;
39020;SDS011;25188;51.958;5.842;2023-07-08T04:13:44;5.40;;;1.90;;
39020;SDS011;25188;51.958;5.842;2023-07-08T04:16:14;4.22;;;1.50;;
39020;SDS011;25188;51.958;5.842;2023-07-08T04:18:49;3.15;;;1.25;;
39020;SDS011;25188;51.958;5.842;2023-07-08T04:21:18;4.05;;;1.48;;
39020;SDS011;25188;51.958;5.842;2023-07-08T04:23:44;3.75;;;1.30;;
39020;SDS011;25188;51.958;5.842;2023-07-08T04:26:10;4.93;;;1.45;;
39020;SDS011;25188;51.958;5.842;2023-07-08T04:28:36;3.63;;;1.45;;
39020;SDS011;25188;51.958;5.842;2023-07-08T04:31:02;7.18;;;1.40;;
39020;SDS011;25188;51.958;5.842;2023-07-08T04:33:28;5.97;;;1.40;;
39020;SDS011;25188;51.958;5.842;2023-07-08T04:35:54;6.00;;;1.58;;
39020;SDS011;25188;51.958;5.842;2023-07-08T04:38:21;3.55;;;1.33;;
39020;SDS011;25188;51.958;5.842;2023-07-08T04:40:49;6.43;;;1.48;;
39020;SDS011;25188;51.958;5.842;2023-07-08T04:43:16;2.80;;;1.38;;
39020;SDS011;25188;51.958;5.842;2023-07-08T04:45:43;3.55;;;1.45;;
39020;SDS011;25188;51.958;5.842;2023-07-08T04:48:13;6.93;;;1.38;;
39020;SDS011;25188;51.958;5.842;2023-07-08T04:50:43;5.90;;;1.55;;
39020;SDS011;25188;51.958;5.842;2023-07-08T04:53:11;3.38;;;1.23;;
39020;SDS011;25188;51.958;5.842;2023-07-08T04:55:44;2.80;;;1.20;;
39020;SDS011;25188;51.958;5.842;2023-07-08T04:58:13;3.33;;;1.30;;
39020;SDS011;25188;51.958;5.842;2023-07-08T05:00:38;5.80;;;1.63;;
39020;SDS011;25188;51.958;5.842;2023-07-08T05:03:04;5.00;;;1.88;;
39020;SDS011;25188;51.958;5.842;2023-07-08T05:05:29;3.80;;;1.52;;
39020;SDS011;25188;51.958;5.842;2023-07-08T05:07:55;2.17;;;1.02;;
39020;SDS011;25188;51.958;5.842;2023-07-08T05:10:21;5.18;;;1.85;;
39020;SDS011;25188;51.958;5.842;2023-07-08T05:12:47;3.72;;;1.70;;
39020;SDS011;25188;51.958;5.842;2023-07-08T05:15:13;2.42;;;1.27;;
39020;SDS011;25188;51.958;5.842;2023-07-08T05:17:40;3.40;;;1.13;;
39020;SDS011;25188;51.958;5.842;2023-07-08T05:20:07;3.53;;;1.23;;
39020;SDS011;25188;51.958;5.842;2023-07-08T05:22:34;4.05;;;1.73;;
39020;SDS011;25188;51.958;5.842;2023-07-08T05:25:00;3.30;;;1.20;;
39020;SDS011;25188;51.958;5.842;2023-07-08T05:27:26;3.75;;;1.75;;
39020;SDS011;25188;51.958;5.842;2023-07-08T05:29:52;4.95;;;1.65;;
39020;SDS011;25188;51.958;5.842;2023-07-08T05:32:18;3.22;;;1.50;;
39020;SDS011;25188;51.958;5.842;2023-07-08T05:34:44;3.35;;;1.77;;
39020;SDS011;25188;51.958;5.842;2023-07-08T05:37:11;2.95;;;1.30;;
39020;SDS011;25188;51.958;5.842;2023-07-08T05:39:37;2.63;;;1.17;;
39020;SDS011;25188;51.958;5.842;2023-07-08T05:42:03;3.30;;;1.52;;
39020;SDS011;25188;51.958;5.842;2023-07-08T05:44:29;4.80;;;1.55;;
39020;SDS011;25188;51.958;5.842;2023-07-08T05:46:54;5.05;;;1.52;;
39020;SDS011;25188;51.958;5.842;2023-07-08T05:49:20;3.13;;;1.30;;
39020;SDS011;25188;51.958;5.842;2023-07-08T05:51:46;4.55;;;1.63;;
39020;SDS011;25188;51.958;5.842;2023-07-08T05:54:12;4.07;;;1.70;;
39020;SDS011;25188;51.958;5.842;2023-07-08T05:56:38;2.97;;;1.40;;
39020;SDS011;25188;51.958;5.842;2023-07-08T05:59:04;6.38;;;2.05;;
39020;SDS011;25188;51.958;5.842;2023-07-08T06:01:30;4.15;;;1.50;;
39020;SDS011;25188;51.958;5.842;2023-07-08T06:03:56;4.63;;;1.33;;
39020;SDS011;25188;51.958;5.842;2023-07-08T06:06:24;3.88;;;1.73;;
39020;SDS011;25188;51.958;5.842;2023-07-08T06:08:50;3.70;;;1.35;;
39020;SDS011;25188;51.958;5.842;2023-07-08T06:11:16;4.28;;;1.50;;
39020;SDS011;25188;51.958;5.842;2023-07-08T06:13:42;3.22;;;1.13;;
39020;SDS011;25188;51.958;5.842;2023-07-08T06:16:07;3.67;;;1.58;;
39020;SDS011;25188;51.958;5.842;2023-07-08T06:18:33;3.28;;;1.50;;
39020;SDS011;25188;51.958;5.842;2023-07-08T06:20:59;5.25;;;2.10;;
39020;SDS011;25188;51.958;5.842;2023-07-08T06:23:25;6.43;;;1.60;;
39020;SDS011;25188;51.958;5.842;2023-07-08T06:25:51;4.30;;;1.45;;
39020;SDS011;25188;51.958;5.842;2023-07-08T06:28:17;4.88;;;1.63;;
39020;SDS011;25188;51.958;5.842;2023-07-08T06:30:43;6.03;;;1.52;;
39020;SDS011;25188;51.958;5.842;2023-07-08T06:33:09;3.17;;;1.55;;
39020;SDS011;25188;51.958;5.842;2023-07-08T06:35:36;3.08;;;1.60;;
39020;SDS011;25188;51.958;5.842;2023-07-08T06:38:02;5.75;;;1.83;;
39020;SDS011;25188;51.958;5.842;2023-07-08T06:40:28;3.58;;;1.88;;
39020;SDS011;25188;51.958;5.842;2023-07-08T06:42:54;4.18;;;1.38;;
39020;SDS011;25188;51.958;5.842;2023-07-08T06:45:19;4.10;;;1.52;;
39020;SDS011;25188;51.958;5.842;2023-07-08T06:47:45;3.50;;;1.60;;
39020;SDS011;25188;51.958;5.842;2023-07-08T06:50:11;5.38;;;1.80;;
39020;SDS011;25188;51.958;5.842;2023-07-08T06:52:37;4.85;;;1.73;;
39020;SDS011;25188;51.958;5.842;2023-07-08T06:55:04;2.92;;;1.40;;
39020;SDS011;25188;51.958;5.842;2023-07-08T06:57:32;5.70;;;1.60;;
39020;SDS011;25188;51.958;5.842;2023-07-08T06:59:57;7.45;;;1.67;;
39020;SDS011;25188;51.958;5.842;2023-07-08T07:02:23;3.20;;;1.60;;
39020;SDS011;25188;51.958;5.842;2023-07-08T07:04:49;4.15;;;1.67;;
39020;SDS011;25188;51.958;5.842;2023-07-08T07:07:15;4.78;;;1.77;;
39020;SDS011;25188;51.958;5.842;2023-07-08T07:09:40;3.63;;;1.83;;
39020;SDS011;25188;51.958;5.842;2023-07-08T07:12:06;4.57;;;1.80;;
39020;SDS011;25188;51.958;5.842;2023-07-08T07:14:32;4.68;;;1.83;;
39020;SDS011;25188;51.958;5.842;2023-07-08T07:16:58;5.07;;;1.67;;
39020;SDS011;25188;51.958;5.842;2023-07-08T07:19:24;4.15;;;1.65;;
39020;SDS011;25188;51.958;5.842;2023-07-08T07:21:50;3.63;;;1.90;;
39020;SDS011;25188;51.958;5.842;2023-07-08T07:24:16;4.80;;;1.83;;
39020;SDS011;25188;51.958;5.842;2023-07-08T07:26:42;4.63;;;1.73;;
39020;SDS011;25188;51.958;5.842;2023-07-08T07:29:08;8.05;;;2.13;;
39020;SDS011;25188;51.958;5.842;2023-07-08T07:31:34;4.47;;;1.75;;
39020;SDS011;25188;51.958;5.842;2023-07-08T07:33:59;3.97;;;1.55;;
39020;SDS011;25188;51.958;5.842;2023-07-08T07:36:26;4.45;;;1.65;;
39020;SDS011;25188;51.958;5.842;2023-07-08T07:38:52;3.55;;;1.50;;
39020;SDS011;25188;51.958;5.842;2023-07-08T07:41:18;5.50;;;1.50;;
39020;SDS011;25188;51.958;5.842;2023-07-08T07:43:44;6.95;;;1.77;;
39020;SDS011;25188;51.958;5.842;2023-07-08T07:46:09;4.68;;;1.60;;
39020;SDS011;25188;51.958;5.842;2023-07-08T07:48:35;4.45;;;2.28;;
39020;SDS011;25188;51.958;5.842;2023-07-08T07:51:02;3.38;;;1.75;;
39020;SDS011;25188;51.958;5.842;2023-07-08T07:53:27;5.78;;;1.90;;
39020;SDS011;25188;51.958;5.842;2023-07-08T07:55:57;4.72;;;1.77;;
39020;SDS011;25188;51.958;5.842;2023-07-08T07:58:24;4.45;;;2.13;;
39020;SDS011;25188;51.958;5.842;2023-07-08T08:00:50;4.00;;;1.77;;
39020;SDS011;25188;51.958;5.842;2023-07-08T08:03:16;6.07;;;1.80;;
39020;SDS011;25188;51.958;5.842;2023-07-08T08:05:42;4.95;;;2.00;;
39020;SDS011;25188;51.958;5.842;2023-07-08T08:08:08;7.00;;;1.90;;
39020;SDS011;25188;51.958;5.842;2023-07-08T08:10:34;3.42;;;1.80;;
39020;SDS011;25188;51.958;5.842;2023-07-08T08:13:00;5.53;;;2.17;;
39020;SDS011;25188;51.958;5.842;2023-07-08T08:15:26;5.07;;;2.33;;
39020;SDS011;25188;51.958;5.842;2023-07-08T08:17:52;8.13;;;2.08;;
39020;SDS011;25188;51.958;5.842;2023-07-08T08:20:19;4.68;;;1.80;;
39020;SDS011;25188;51.958;5.842;2023-07-08T08:22:46;5.45;;;2.22;;
39020;SDS011;25188;51.958;5.842;2023-07-08T08:25:12;4.75;;;2.80;;
39020;SDS011;25188;51.958;5.842;2023-07-08T08:27:38;4.38;;;1.92;;
39020;SDS011;25188;51.958;5.842;2023-07-08T08:30:04;4.88;;;2.40;;
39020;SDS011;25188;51.958;5.842;2023-07-08T08:32:31;4.25;;;1.75;;
39020;SDS011;25188;51.958;5.842;2023-07-08T08:34:56;3.92;;;1.80;;
39020;SDS011;25188;51.958;5.842;2023-07-08T08:37:22;8.75;;;2.13;;
39020;SDS011;25188;51.958;5.842;2023-07-08T08:39:48;7.20;;;2.30;;
39020;SDS011;25188;51.958;5.842;2023-07-08T08:42:20;4.93;;;2.65;;
39020;SDS011;25188;51.958;5.842;2023-07-08T08:52:55;5.88;;;2.50;;
39020;SDS011;25188;51.958;5.842;2023-07-08T08:55:22;6.75;;;2.45;;
39020;SDS011;25188;51.958;5.842;2023-07-08T09:03:23;5.05;;;2.38;;
39020;SDS011;25188;51.958;5.842;2023-07-08T09:06:25;6.55;;;2.75;;
39020;SDS011;25188;51.958;5.842;2023-07-08T09:09:03;4.68;;;2.53;;
39020;SDS011;25188;51.958;5.842;2023-07-08T09:14:35;5.55;;;2.30;;
39020;SDS011;25188;51.958;5.842;2023-07-08T09:22:33;5.07;;;2.78;;
39020;SDS011;25188;51.958;5.842;2023-07-08T09:27:40;5.63;;;2.85;;
39020;SDS011;25188;51.958;5.842;2023-07-08T09:30:12;11.55;;;2.75;;
39020;SDS011;25188;51.958;5.842;2023-07-08T09:32:40;6.93;;;3.33;;
39020;SDS011;25188;51.958;5.842;2023-07-08T09:35:06;5.38;;;2.80;;
39020;SDS011;25188;51.958;5.842;2023-07-08T09:37:37;6.97;;;3.00;;
39020;SDS011;25188;51.958;5.842;2023-07-08T09:40:04;4.45;;;2.67;;
39020;SDS011;25188;51.958;5.842;2023-07-08T09:42:42;5.38;;;2.90;;
39020;SDS011;25188;51.958;5.842;2023-07-08T09:45:13;4.25;;;2.58;;
39020;SDS011;25188;51.958;5.842;2023-07-08T09:47:42;7.35;;;2.63;;
39020;SDS011;25188;51.958;5.842;2023-07-08T09:50:21;6.35;;;2.85;;
39020;SDS011;25188;51.958;5.842;2023-07-08T09:55:18;6.38;;;2.70;;
39020;SDS011;25188;51.958;5.842;2023-07-08T09:57:44;4.95;;;2.75;;
39020;SDS011;25188;51.958;5.842;2023-07-08T10:00:13;5.53;;;2.55;;
39020;SDS011;25188;51.958;5.842;2023-07-08T10:02:45;7.07;;;3.30;;
39020;SDS011;25188;51.958;5.842;2023-07-08T10:05:23;5.57;;;3.22;;
39020;SDS011;25188;51.958;5.842;2023-07-08T10:07:55;7.10;;;3.30;;
39020;SDS011;25188;51.958;5.842;2023-07-08T10:10:28;6.05;;;2.85;;
39020;SDS011;25188;51.958;5.842;2023-07-08T10:13:00;5.68;;;3.38;;
39020;SDS011;25188;51.958;5.842;2023-07-08T10:18:01;6.15;;;3.45;;
39020;SDS011;25188;51.958;5.842;2023-07-08T10:20:36;10.20;;;3.50;;
39020;SDS011;25188;51.958;5.842;2023-07-08T10:23:27;6.13;;;3.47;;
39020;SDS011;25188;51.958;5.842;2023-07-08T10:31:31;6.65;;;3.53;;
39020;SDS011;25188;51.958;5.842;2023-07-08T10:36:53;6.53;;;3.53;;
39020;SDS011;25188;51.958;5.842;2023-07-08T10:45:31;5.82;;;3.28;;
39020;SDS011;25188;51.958;5.842;2023-07-08T10:48:46;5.50;;;3.42;;
39020;SDS011;25188;51.958;5.842;2023-07-08T10:51:27;5.22;;;2.97;;
39020;SDS011;25188;51.958;5.842;2023-07-08T11:10:36;9.05;;;3.83;;
39020;SDS011;25188;51.958;5.842;2023-07-08T11:13:14;7.65;;;3.58;;
39020;SDS011;25188;51.958;5.842;2023-07-08T11:18:39;7.30;;;4.03;;
39020;SDS011;25188;51.958;5.842;2023-07-08T11:24:34;7.63;;;3.45;;
39020;SDS011;25188;51.958;5.842;2023-07-08T11:30:04;6.88;;;3.83;;
39020;SDS011;25188;51.958;5.842;2023-07-08T11:32:38;8.32;;;3.97;;
39020;SDS011;25188;51.958;5.842;2023-07-08T11:35:06;7.15;;;3.92;;
39020;SDS011;25188;51.958;5.842;2023-07-08T11:37:50;6.43;;;3.47;;
39020;SDS011;25188;51.958;5.842;2023-07-08T11:40:21;6.72;;;4.05;;
39020;SDS011;25188;51.958;5.842;2023-07-08T11:42:48;6.18;;;3.78;;
39020;SDS011;25188;51.958;5.842;2023-07-08T11:45:30;7.25;;;3.60;;
39020;SDS011;25188;51.958;5.842;2023-07-08T11:48:06;6.85;;;3.40;;
39020;SDS011;25188;51.958;5.842;2023-07-08T11:50:41;4.38;;;2.85;;
39020;SDS011;25188;51.958;5.842;2023-07-08T11:53:12;7.72;;;3.45;;
39020;SDS011;25188;51.958;5.842;2023-07-08T11:55:55;5.63;;;3.47;;
39020;SDS011;25188;51.958;5.842;2023-07-08T11:58:24;5.47;;;3.22;;
39020;SDS011;25188;51.958;5.842;2023-07-08T12:03:28;6.07;;;3.28;;
39020;SDS011;25188;51.958;5.842;2023-07-08T12:05:57;7.72;;;3.35;;
39020;SDS011;25188;51.958;5.842;2023-07-08T12:08:33;7.70;;;3.72;;
39020;SDS011;25188;51.958;5.842;2023-07-08T12:11:02;7.55;;;3.67;;
39020;SDS011;25188;51.958;5.842;2023-07-08T12:13:28;5.85;;;4.28;;
39020;SDS011;25188;51.958;5.842;2023-07-08T12:15:55;4.93;;;3.25;;
39020;SDS011;25188;51.958;5.842;2023-07-08T12:18:22;5.60;;;3.35;;
39020;SDS011;25188;51.958;5.842;2023-07-08T12:20:55;9.18;;;3.53;;
39020;SDS011;25188;51.958;5.842;2023-07-08T12:23:24;6.55;;;3.22;;
39020;SDS011;25188;51.958;5.842;2023-07-08T12:25:52;5.32;;;3.53;;
39020;SDS011;25188;51.958;5.842;2023-07-08T12:28:19;6.88;;;3.85;;
39020;SDS011;25188;51.958;5.842;2023-07-08T12:30:46;7.13;;;3.83;;
39020;SDS011;25188;51.958;5.842;2023-07-08T12:33:13;7.28;;;3.85;;
39020;SDS011;25188;51.958;5.842;2023-07-08T12:35:59;6.03;;;3.70;;
39020;SDS011;25188;51.958;5.842;2023-07-08T12:41:02;6.43;;;3.53;;
39020;SDS011;25188;51.958;5.842;2023-07-08T12:43:36;5.50;;;3.53;;
39020;SDS011;25188;51.958;5.842;2023-07-08T12:46:02;6.22;;;3.90;;
39020;SDS011;25188;51.958;5.842;2023-07-08T12:48:35;6.30;;;3.47;;
39020;SDS011;25188;51.958;5.842;2023-07-08T12:51:05;5.95;;;3.95;;
39020;SDS011;25188;51.958;5.842;2023-07-08T12:53:35;5.93;;;3.83;;
39020;SDS011;25188;51.958;5.842;2023-07-08T12:56:01;6.75;;;3.78;;
39020;SDS011;25188;51.958;5.842;2023-07-08T12:58:28;8.25;;;3.95;;
39020;SDS011;25188;51.958;5.842;2023-07-08T13:00:57;6.97;;;4.38;;
39020;SDS011;25188;51.958;5.842;2023-07-08T13:03:29;5.70;;;3.80;;
39020;SDS011;25188;51.958;5.842;2023-07-08T13:05:57;7.45;;;3.58;;
39020;SDS011;25188;51.958;5.842;2023-07-08T13:08:29;5.45;;;3.85;;
39020;SDS011;25188;51.958;5.842;2023-07-08T13:10:59;6.05;;;3.78;;
39020;SDS011;25188;51.958;5.842;2023-07-08T13:13:34;8.15;;;3.92;;
39020;SDS011;25188;51.958;5.842;2023-07-08T13:16:09;6.03;;;3.92;;
39020;SDS011;25188;51.958;5.842;2023-07-08T13:18:36;5.60;;;3.75;;
39020;SDS011;25188;51.958;5.842;2023-07-08T13:21:05;9.45;;;4.35;;
39020;SDS011;25188;51.958;5.842;2023-07-08T13:23:33;9.20;;;3.38;;
39020;SDS011;25188;51.958;5.842;2023-07-08T13:26:00;6.22;;;4.50;;
39020;SDS011;25188;51.958;5.842;2023-07-08T13:28:36;5.93;;;4.10;;
39020;SDS011;25188;51.958;5.842;2023-07-08T13:31:13;5.65;;;3.60;;
39020;SDS011;25188;51.958;5.842;2023-07-08T13:33:48;6.10;;;3.85;;
39020;SDS011;25188;51.958;5.842;2023-07-08T13:36:20;8.30;;;4.38;;
39020;SDS011;25188;51.958;5.842;2023-07-08T13:38:48;6.07;;;4.07;;
39020;SDS011;25188;51.958;5.842;2023-07-08T13:41:19;7.30;;;4.18;;
39020;SDS011;25188;51.958;5.842;2023-07-08T13:43:48;7.80;;;4.22;;
39020;SDS011;25188;51.958;5.842;2023-07-08T13:46:35;6.18;;;3.70;;
39020;SDS011;25188;51.958;5.842;2023-07-08T13:49:07;6.78;;;4.35;;
39020;SDS011;25188;51.958;5.842;2023-07-08T13:51:39;6.25;;;4.57;;
39020;SDS011;25188;51.958;5.842;2023-07-08T13:54:13;6.82;;;4.00;;
39020;SDS011;25188;51.958;5.842;2023-07-08T13:56:56;7.22;;;3.65;;
39020;SDS011;25188;51.958;5.842;2023-07-08T13:59:26;8.90;;;4.32;;
39020;SDS011;25188;51.958;5.842;2023-07-08T14:01:53;5.43;;;4.00;;
39020;SDS011;25188;51.958;5.842;2023-07-08T14:04:22;6.55;;;4.50;;
39020;SDS011;25188;51.958;5.842;2023-07-08T14:06:58;8.45;;;4.63;;
39020;SDS011;25188;51.958;5.842;2023-07-08T14:09:24;6.95;;;3.85;;
39020;SDS011;25188;51.958;5.842;2023-07-08T14:11:50;8.65;;;4.13;;
39020;SDS011;25188;51.958;5.842;2023-07-08T14:14:17;6.60;;;3.92;;
39020;SDS011;25188;51.958;5.842;2023-07-08T14:16:51;5.72;;;3.63;;
39020;SDS011;25188;51.958;5.842;2023-07-08T14:19:28;6.20;;;3.63;;
39020;SDS011;25188;51.958;5.842;2023-07-08T14:21:57;6.72;;;4.20;;
39020;SDS011;25188;51.958;5.842;2023-07-08T14:24:24;6.45;;;3.80;;
39020;SDS011;25188;51.958;5.842;2023-07-08T14:26:51;6.22;;;4.25;;
39020;SDS011;25188;51.958;5.842;2023-07-08T14:29:18;6.22;;;3.35;;
39020;SDS011;25188;51.958;5.842;2023-07-08T14:31:44;7.15;;;4.22;;
39020;SDS011;25188;51.958;5.842;2023-07-08T14:34:13;6.65;;;3.72;;
39020;SDS011;25188;51.958;5.842;2023-07-08T14:36:44;8.38;;;3.92;;
39020;SDS011;25188;51.958;5.842;2023-07-08T14:39:13;5.85;;;3.63;;
39020;SDS011;25188;51.958;5.842;2023-07-08T14:41:41;4.97;;;3.58;;
39020;SDS011;25188;51.958;5.842;2023-07-08T14:44:33;7.00;;;3.60;;
39020;SDS011;25188;51.958;5.842;2023-07-08T14:46:58;7.05;;;3.60;;
39020;SDS011;25188;51.958;5.842;2023-07-08T14:49:24;5.18;;;3.85;;
39020;SDS011;25188;51.958;5.842;2023-07-08T14:51:51;6.10;;;3.85;;
39020;SDS011;25188;51.958;5.842;2023-07-08T14:54:17;5.30;;;3.67;;
39020;SDS011;25188;51.958;5.842;2023-07-08T14:56:44;6.53;;;3.65;;
39020;SDS011;25188;51.958;5.842;2023-07-08T14:59:20;6.07;;;3.50;;
39020;SDS011;25188;51.958;5.842;2023-07-08T15:01:48;5.30;;;3.60;;
39020;SDS011;25188;51.958;5.842;2023-07-08T15:04:16;5.75;;;3.55;;
39020;SDS011;25188;51.958;5.842;2023-07-08T15:06:43;6.43;;;3.60;;
39020;SDS011;25188;51.958;5.842;2023-07-08T15:09:09;4.80;;;3.22;;
39020;SDS011;25188;51.958;5.842;2023-07-08T15:11:36;5.30;;;3.70;;
39020;SDS011;25188;51.958;5.842;2023-07-08T15:14:08;4.25;;;3.10;;
39020;SDS011;25188;51.958;5.842;2023-07-08T15:16:55;5.85;;;3.90;;
39020;SDS011;25188;51.958;5.842;2023-07-08T15:19:21;5.85;;;3.28;;
39020;SDS011;25188;51.958;5.842;2023-07-08T15:21:47;5.30;;;3.42;;
39020;SDS011;25188;51.958;5.842;2023-07-08T15:24:13;5.90;;;3.55;;
39020;SDS011;25188;51.958;5.842;2023-07-08T15:26:40;8.98;;;3.80;;
39020;SDS011;25188;51.958;5.842;2023-07-08T15:29:12;6.00;;;4.28;;
39020;SDS011;25188;51.958;5.842;2023-07-08T15:31:41;7.00;;;3.70;;
39020;SDS011;25188;51.958;5.842;2023-07-08T15:34:11;5.97;;;3.92;;
39020;SDS011;25188;51.958;5.842;2023-07-08T15:36:39;6.00;;;4.00;;
39020;SDS011;25188;51.958;5.842;2023-07-08T15:39:05;6.53;;;3.50;;
39020;SDS011;25188;51.958;5.842;2023-07-08T15:41:31;5.15;;;3.70;;
39020;SDS011;25188;51.958;5.842;2023-07-08T15:43:58;5.63;;;3.45;;
39020;SDS011;25188;51.958;5.842;2023-07-08T15:46:28;7.85;;;4.22;;
39020;SDS011;25188;51.958;5.842;2023-07-08T15:49:00;5.88;;;3.38;;
39020;SDS011;25188;51.958;5.842;2023-07-08T15:51:34;7.18;;;3.65;;
39020;SDS011;25188;51.958;5.842;2023-07-08T15:53:59;6.22;;;3.78;;
39020;SDS011;25188;51.958;5.842;2023-07-08T15:56:25;7.32;;;3.92;;
39020;SDS011;25188;51.958;5.842;2023-07-08T15:58:51;6.45;;;3.80;;
39020;SDS011;25188;51.958;5.842;2023-07-08T16:01:18;5.07;;;3.25;;
39020;SDS011;25188;51.958;5.842;2023-07-08T16:03:46;6.03;;;3.55;;
39020;SDS011;25188;51.958;5.842;2023-07-08T16:06:13;5.90;;;2.97;;
39020;SDS011;25188;51.958;5.842;2023-07-08T16:08:39;6.15;;;3.50;;
39020;SDS011;25188;51.958;5.842;2023-07-08T16:11:09;7.20;;;3.83;;